sensor_id;sensor_type;location;lat;lon;timestamp;temperature;humidity
7972;DHT22;4031;49.758;6.120;2024-03-25T00:00:47;1.90;99.90
7972;DHT22;4031;49.758;6.120;2024-03-25T00:03:13;1.90;99.90
7972;DHT22;4031;49.758;6.120;2024-03-25T00:05:39;1.90;99.90
7972;DHT22;4031;49.758;6.120;2024-03-25T00:08:05;1.90;99.90
7972;DHT22;4031;49.758;6.120;2024-03-25T00:10:31;1.90;99.90
7972;DHT22;4031;49.758;6.120;2024-03-25T00:12:56;2.00;99.90
7972;DHT22;4031;49.758;6.120;2024-03-25T00:15:22;2.20;99.90
7972;DHT22;4031;49.758;6.120;2024-03-25T00:17:49;2.30;99.90
7972;DHT22;4031;49.758;6.120;2024-03-25T00:20:15;2.50;99.90
7972;DHT22;4031;49.758;6.120;2024-03-25T00:22:41;2.60;99.90
7972;DHT22;4031;49.758;6.120;2024-03-25T00:25:08;2.70;99.90
7972;DHT22;4031;49.758;6.120;2024-03-25T00:27:34;2.80;99.90
7972;DHT22;4031;49.758;6.120;2024-03-25T00:30:01;2.80;99.90
7972;DHT22;4031;49.758;6.120;2024-03-25T00:32:26;2.70;99.90
7972;DHT22;4031;49.758;6.120;2024-03-25T00:34:52;2.60;99.90
7972;DHT22;4031;49.758;6.120;2024-03-25T00:37:18;2.50;99.90
7972;DHT22;4031;49.758;6.120;2024-03-25T00:39:44;2.40;99.90
7972;DHT22;4031;49.758;6.120;2024-03-25T00:42:10;2.30;99.90
7972;DHT22;4031;49.758;6.120;2024-03-25T00:44:36;2.30;99.90
7972;DHT22;4031;49.758;6.120;2024-03-25T00:47:02;2.20;99.90
7972;DHT22;4031;49.758;6.120;2024-03-25T00:49:28;2.10;99.90
7972;DHT22;4031;49.758;6.120;2024-03-25T00:51:54;2.10;99.90
7972;DHT22;4031;49.758;6.120;2024-03-25T00:54:19;2.10;99.90
7972;DHT22;4031;49.758;6.120;2024-03-25T00:56:45;2.10;99.90
7972;DHT22;4031;49.758;6.120;2024-03-25T00:59:12;2.00;99.90
7972;DHT22;4031;49.758;6.120;2024-03-25T01:01:37;1.90;99.90
7972;DHT22;4031;49.758;6.120;2024-03-25T01:04:03;1.80;99.90
7972;DHT22;4031;49.758;6.120;2024-03-25T01:06:30;1.80;99.90
7972;DHT22;4031;49.758;6.120;2024-03-25T01:08:56;1.70;99.90
7972;DHT22;4031;49.758;6.120;2024-03-25T01:11:22;1.60;99.90
7972;DHT22;4031;49.758;6.120;2024-03-25T01:13:48;1.50;99.90
7972;DHT22;4031;49.758;6.120;2024-03-25T01:16:14;1.50;99.90
7972;DHT22;4031;49.758;6.120;2024-03-25T01:18:40;1.50;99.90
7972;DHT22;4031;49.758;6.120;2024-03-25T01:21:06;1.60;99.90
7972;DHT22;4031;49.758;6.120;2024-03-25T01:23:32;1.60;99.90
7972;DHT22;4031;49.758;6.120;2024-03-25T01:25:57;1.70;99.90
7972;DHT22;4031;49.758;6.120;2024-03-25T01:28:23;1.70;99.90
7972;DHT22;4031;49.758;6.120;2024-03-25T01:30:49;1.90;99.90
7972;DHT22;4031;49.758;6.120;2024-03-25T01:33:15;1.90;99.90
7972;DHT22;4031;49.758;6.120;2024-03-25T01:35:41;1.90;99.90
7972;DHT22;4031;49.758;6.120;2024-03-25T01:38:07;1.90;99.90
7972;DHT22;4031;49.758;6.120;2024-03-25T01:40:34;1.90;99.90
7972;DHT22;4031;49.758;6.120;2024-03-25T01:43:02;1.80;99.90
7972;DHT22;4031;49.758;6.120;2024-03-25T01:45:33;1.70;99.90
7972;DHT22;4031;49.758;6.120;2024-03-25T01:48:05;1.50;99.90
7972;DHT22;4031;49.758;6.120;2024-03-25T01:50:36;1.40;99.90
7972;DHT22;4031;49.758;6.120;2024-03-25T01:53:03;1.20;99.90
7972;DHT22;4031;49.758;6.120;2024-03-25T01:55:32;1.20;99.90
7972;DHT22;4031;49.758;6.120;2024-03-25T01:57:58;1.10;99.90
7972;DHT22;4031;49.758;6.120;2024-03-25T02:00:25;0.90;99.90
7972;DHT22;4031;49.758;6.120;2024-03-25T02:02:52;0.80;99.90
7972;DHT22;4031;49.758;6.120;2024-03-25T02:05:19;0.60;99.90
7972;DHT22;4031;49.758;6.120;2024-03-25T02:07:45;0.60;99.90
7972;DHT22;4031;49.758;6.120;2024-03-25T02:10:11;0.60;99.90
7972;DHT22;4031;49.758;6.120;2024-03-25T02:12:41;0.70;99.90
7972;DHT22;4031;49.758;6.120;2024-03-25T02:15:09;0.70;99.90
7972;DHT22;4031;49.758;6.120;2024-03-25T02:17:36;0.80;99.90
7972;DHT22;4031;49.758;6.120;2024-03-25T02:20:02;0.70;99.90
7972;DHT22;4031;49.758;6.120;2024-03-25T02:22:31;0.70;99.90
7972;DHT22;4031;49.758;6.120;2024-03-25T02:24:58;0.60;99.90
7972;DHT22;4031;49.758;6.120;2024-03-25T02:27:25;0.50;99.90
7972;DHT22;4031;49.758;6.120;2024-03-25T02:29:54;0.40;99.90
7972;DHT22;4031;49.758;6.120;2024-03-25T02:32:20;0.40;99.90
7972;DHT22;4031;49.758;6.120;2024-03-25T02:34:51;0.30;99.90
7972;DHT22;4031;49.758;6.120;2024-03-25T02:37:18;0.30;99.90
7972;DHT22;4031;49.758;6.120;2024-03-25T02:39:44;0.40;99.90
7972;DHT22;4031;49.758;6.120;2024-03-25T02:42:10;0.40;99.90
7972;DHT22;4031;49.758;6.120;2024-03-25T02:44:36;0.40;99.90
7972;DHT22;4031;49.758;6.120;2024-03-25T02:47:03;0.40;99.90
7972;DHT22;4031;49.758;6.120;2024-03-25T02:49:29;0.30;99.90
7972;DHT22;4031;49.758;6.120;2024-03-25T02:51:55;0.20;99.90
7972;DHT22;4031;49.758;6.120;2024-03-25T02:54:21;0.20;99.90
7972;DHT22;4031;49.758;6.120;2024-03-25T02:56:47;0.20;99.90
7972;DHT22;4031;49.758;6.120;2024-03-25T02:59:13;0.40;99.90
7972;DHT22;4031;49.758;6.120;2024-03-25T03:01:39;0.50;99.90
7972;DHT22;4031;49.758;6.120;2024-03-25T03:04:04;0.50;99.90
7972;DHT22;4031;49.758;6.120;2024-03-25T03:06:30;0.40;99.90
7972;DHT22;4031;49.758;6.120;2024-03-25T03:08:56;0.20;99.90
7972;DHT22;4031;49.758;6.120;2024-03-25T03:11:21;0.10;99.90
7972;DHT22;4031;49.758;6.120;2024-03-25T03:13:47;0.20;99.90
7972;DHT22;4031;49.758;6.120;2024-03-25T03:16:13;0.00;99.90
7972;DHT22;4031;49.758;6.120;2024-03-25T03:18:40;0.00;99.90
7972;DHT22;4031;49.758;6.120;2024-03-25T03:21:06;-0.10;99.90
7972;DHT22;4031;49.758;6.120;2024-03-25T03:23:31;-0.20;99.90
7972;DHT22;4031;49.758;6.120;2024-03-25T03:25:57;-0.30;99.90
7972;DHT22;4031;49.758;6.120;2024-03-25T03:28:25;-0.40;99.90
7972;DHT22;4031;49.758;6.120;2024-03-25T03:30:51;-0.30;99.90
7972;DHT22;4031;49.758;6.120;2024-03-25T03:33:16;-0.40;99.90
7972;DHT22;4031;49.758;6.120;2024-03-25T03:35:43;-0.40;99.90
7972;DHT22;4031;49.758;6.120;2024-03-25T03:38:08;-0.40;99.90
7972;DHT22;4031;49.758;6.120;2024-03-25T03:40:34;-0.50;99.90
7972;DHT22;4031;49.758;6.120;2024-03-25T03:43:00;-0.50;99.90
7972;DHT22;4031;49.758;6.120;2024-03-25T03:45:26;-0.60;99.90
7972;DHT22;4031;49.758;6.120;2024-03-25T03:47:51;-0.60;99.90
7972;DHT22;4031;49.758;6.120;2024-03-25T03:50:17;-0.60;99.90
7972;DHT22;4031;49.758;6.120;2024-03-25T03:52:43;-0.60;99.90
7972;DHT22;4031;49.758;6.120;2024-03-25T03:55:09;-0.60;99.90
7972;DHT22;4031;49.758;6.120;2024-03-25T03:57:35;-0.60;99.90
7972;DHT22;4031;49.758;6.120;2024-03-25T04:00:01;-0.60;99.90
7972;DHT22;4031;49.758;6.120;2024-03-25T04:02:28;-0.60;99.90
7972;DHT22;4031;49.758;6.120;2024-03-25T04:04:54;-0.70;99.90
7972;DHT22;4031;49.758;6.120;2024-03-25T04:07:20;-0.70;99.90
7972;DHT22;4031;49.758;6.120;2024-03-25T04:09:48;-0.80;99.90
7972;DHT22;4031;49.758;6.120;2024-03-25T04:12:13;-0.80;99.90
7972;DHT22;4031;49.758;6.120;2024-03-25T04:14:39;-0.70;99.90
7972;DHT22;4031;49.758;6.120;2024-03-25T04:17:05;-0.80;99.90
7972;DHT22;4031;49.758;6.120;2024-03-25T04:19:31;-0.80;99.90
7972;DHT22;4031;49.758;6.120;2024-03-25T04:21:57;-0.90;99.90
7972;DHT22;4031;49.758;6.120;2024-03-25T04:24:23;-1.00;99.90
7972;DHT22;4031;49.758;6.120;2024-03-25T04:26:49;-1.00;99.90
7972;DHT22;4031;49.758;6.120;2024-03-25T04:29:15;-1.00;99.90
7972;DHT22;4031;49.758;6.120;2024-03-25T04:31:41;-1.00;99.90
7972;DHT22;4031;49.758;6.120;2024-03-25T04:34:07;-1.10;99.90
7972;DHT22;4031;49.758;6.120;2024-03-25T04:36:33;-1.10;99.90
7972;DHT22;4031;49.758;6.120;2024-03-25T04:38:58;-1.00;99.90
7972;DHT22;4031;49.758;6.120;2024-03-25T04:41:25;-1.00;99.90
7972;DHT22;4031;49.758;6.120;2024-03-25T04:43:51;-0.80;99.90
7972;DHT22;4031;49.758;6.120;2024-03-25T04:46:16;-0.90;99.90
7972;DHT22;4031;49.758;6.120;2024-03-25T04:48:42;-0.90;99.90
7972;DHT22;4031;49.758;6.120;2024-03-25T04:51:08;-1.00;99.90
7972;DHT22;4031;49.758;6.120;2024-03-25T04:53:34;-1.00;99.90
7972;DHT22;4031;49.758;6.120;2024-03-25T04:56:00;-1.20;99.90
7972;DHT22;4031;49.758;6.120;2024-03-25T04:58:26;-1.20;99.90
7972;DHT22;4031;49.758;6.120;2024-03-25T05:00:52;-1.20;99.90
7972;DHT22;4031;49.758;6.120;2024-03-25T05:03:18;-1.20;99.90
7972;DHT22;4031;49.758;6.120;2024-03-25T05:05:44;-1.20;99.90
7972;DHT22;4031;49.758;6.120;2024-03-25T05:08:09;-1.30;99.90
7972;DHT22;4031;49.758;6.120;2024-03-25T05:10:35;-1.30;99.90
7972;DHT22;4031;49.758;6.120;2024-03-25T05:13:01;-1.30;99.90
7972;DHT22;4031;49.758;6.120;2024-03-25T05:15:27;-1.30;99.90
7972;DHT22;4031;49.758;6.120;2024-03-25T05:17:52;-1.30;99.90
7972;DHT22;4031;49.758;6.120;2024-03-25T05:20:18;-1.40;99.90
7972;DHT22;4031;49.758;6.120;2024-03-25T05:22:44;-1.40;99.90
7972;DHT22;4031;49.758;6.120;2024-03-25T05:25:10;-1.40;99.90
7972;DHT22;4031;49.758;6.120;2024-03-25T05:27:35;-1.30;99.90
7972;DHT22;4031;49.758;6.120;2024-03-25T05:30:01;-1.20;99.90
7972;DHT22;4031;49.758;6.120;2024-03-25T05:32:27;-1.00;99.90
7972;DHT22;4031;49.758;6.120;2024-03-25T05:34:53;-0.80;99.90
7972;DHT22;4031;49.758;6.120;2024-03-25T05:37:19;-0.70;99.90
7972;DHT22;4031;49.758;6.120;2024-03-25T05:39:45;-0.50;99.90
7972;DHT22;4031;49.758;6.120;2024-03-25T05:42:10;-0.40;99.90
7972;DHT22;4031;49.758;6.120;2024-03-25T05:44:36;-0.30;99.90
7972;DHT22;4031;49.758;6.120;2024-03-25T05:47:02;-0.20;99.90
7972;DHT22;4031;49.758;6.120;2024-03-25T05:49:28;-0.10;99.90
7972;DHT22;4031;49.758;6.120;2024-03-25T05:51:53;0.00;99.90
7972;DHT22;4031;49.758;6.120;2024-03-25T05:54:19;0.30;99.90
7972;DHT22;4031;49.758;6.120;2024-03-25T05:56:45;0.30;99.90
7972;DHT22;4031;49.758;6.120;2024-03-25T05:59:11;0.40;99.90
7972;DHT22;4031;49.758;6.120;2024-03-25T06:01:36;0.50;99.90
7972;DHT22;4031;49.758;6.120;2024-03-25T06:04:03;0.60;99.90
7972;DHT22;4031;49.758;6.120;2024-03-25T06:06:29;0.60;99.90
7972;DHT22;4031;49.758;6.120;2024-03-25T06:08:55;0.80;99.90
7972;DHT22;4031;49.758;6.120;2024-03-25T06:11:21;0.90;99.90
7972;DHT22;4031;49.758;6.120;2024-03-25T06:13:47;0.90;99.90
7972;DHT22;4031;49.758;6.120;2024-03-25T06:16:14;1.10;99.90
7972;DHT22;4031;49.758;6.120;2024-03-25T06:18:40;1.10;99.90
7972;DHT22;4031;49.758;6.120;2024-03-25T06:21:06;1.10;99.90
7972;DHT22;4031;49.758;6.120;2024-03-25T06:23:32;1.30;99.90
7972;DHT22;4031;49.758;6.120;2024-03-25T06:25:58;1.50;99.90
7972;DHT22;4031;49.758;6.120;2024-03-25T06:28:24;1.60;99.90
7972;DHT22;4031;49.758;6.120;2024-03-25T06:30:50;1.80;99.90
7972;DHT22;4031;49.758;6.120;2024-03-25T06:33:36;1.90;99.90
7972;DHT22;4031;49.758;6.120;2024-03-25T06:36:21;2.10;99.90
7972;DHT22;4031;49.758;6.120;2024-03-25T06:38:47;2.30;99.90
7972;DHT22;4031;49.758;6.120;2024-03-25T06:41:13;2.50;99.90
7972;DHT22;4031;49.758;6.120;2024-03-25T06:43:39;2.60;99.90
7972;DHT22;4031;49.758;6.120;2024-03-25T06:46:05;2.70;99.90
7972;DHT22;4031;49.758;6.120;2024-03-25T06:48:32;2.70;99.90
7972;DHT22;4031;49.758;6.120;2024-03-25T06:51:00;2.80;99.90
7972;DHT22;4031;49.758;6.120;2024-03-25T06:53:28;2.90;99.90
7972;DHT22;4031;49.758;6.120;2024-03-25T06:55:55;2.90;99.90
7972;DHT22;4031;49.758;6.120;2024-03-25T06:58:22;2.90;99.90
7972;DHT22;4031;49.758;6.120;2024-03-25T07:00:49;3.00;99.90
7972;DHT22;4031;49.758;6.120;2024-03-25T07:03:18;3.10;99.90
7972;DHT22;4031;49.758;6.120;2024-03-25T07:05:46;3.20;99.90
7972;DHT22;4031;49.758;6.120;2024-03-25T07:08:13;3.30;99.90
7972;DHT22;4031;49.758;6.120;2024-03-25T07:10:41;3.40;99.90
7972;DHT22;4031;49.758;6.120;2024-03-25T07:13:07;3.60;99.90
7972;DHT22;4031;49.758;6.120;2024-03-25T07:15:33;3.70;99.90
7972;DHT22;4031;49.758;6.120;2024-03-25T07:17:59;3.80;99.90
7972;DHT22;4031;49.758;6.120;2024-03-25T07:20:25;3.80;99.90
7972;DHT22;4031;49.758;6.120;2024-03-25T07:22:52;3.90;99.90
7972;DHT22;4031;49.758;6.120;2024-03-25T07:25:25;4.10;99.90
7972;DHT22;4031;49.758;6.120;2024-03-25T07:27:51;4.30;99.90
7972;DHT22;4031;49.758;6.120;2024-03-25T07:30:18;4.50;99.90
7972;DHT22;4031;49.758;6.120;2024-03-25T07:32:44;4.60;99.90
7972;DHT22;4031;49.758;6.120;2024-03-25T07:35:11;4.60;99.90
7972;DHT22;4031;49.758;6.120;2024-03-25T07:37:37;4.60;99.90
7972;DHT22;4031;49.758;6.120;2024-03-25T07:40:03;4.60;99.90
7972;DHT22;4031;49.758;6.120;2024-03-25T07:42:31;4.60;99.90
7972;DHT22;4031;49.758;6.120;2024-03-25T07:44:57;4.60;99.90
7972;DHT22;4031;49.758;6.120;2024-03-25T07:47:23;4.60;99.90
7972;DHT22;4031;49.758;6.120;2024-03-25T07:49:49;4.70;99.90
7972;DHT22;4031;49.758;6.120;2024-03-25T07:52:14;4.70;99.90
7972;DHT22;4031;49.758;6.120;2024-03-25T07:54:40;4.80;99.90
7972;DHT22;4031;49.758;6.120;2024-03-25T07:57:08;4.80;99.90
7972;DHT22;4031;49.758;6.120;2024-03-25T07:59:34;4.90;99.90
7972;DHT22;4031;49.758;6.120;2024-03-25T08:02:00;5.00;99.90
7972;DHT22;4031;49.758;6.120;2024-03-25T08:04:26;5.10;99.90
7972;DHT22;4031;49.758;6.120;2024-03-25T08:06:52;5.20;99.90
7972;DHT22;4031;49.758;6.120;2024-03-25T08:09:18;5.40;99.90
7972;DHT22;4031;49.758;6.120;2024-03-25T08:11:45;5.50;99.90
7972;DHT22;4031;49.758;6.120;2024-03-25T08:14:11;5.70;99.90
7972;DHT22;4031;49.758;6.120;2024-03-25T08:16:37;5.80;99.90
7972;DHT22;4031;49.758;6.120;2024-03-25T08:19:03;6.00;99.90
7972;DHT22;4031;49.758;6.120;2024-03-25T08:21:29;6.10;99.90
7972;DHT22;4031;49.758;6.120;2024-03-25T08:23:55;6.30;99.90
7972;DHT22;4031;49.758;6.120;2024-03-25T08:26:21;6.40;99.90
7972;DHT22;4031;49.758;6.120;2024-03-25T08:28:47;6.60;99.90
7972;DHT22;4031;49.758;6.120;2024-03-25T08:31:14;6.60;99.90
7972;DHT22;4031;49.758;6.120;2024-03-25T08:33:40;6.80;99.90
7972;DHT22;4031;49.758;6.120;2024-03-25T08:36:06;6.90;99.90
7972;DHT22;4031;49.758;6.120;2024-03-25T08:38:33;7.10;99.90
7972;DHT22;4031;49.758;6.120;2024-03-25T08:40:59;7.50;99.90
7972;DHT22;4031;49.758;6.120;2024-03-25T08:43:24;7.70;99.90
7972;DHT22;4031;49.758;6.120;2024-03-25T08:45:50;7.90;99.90
7972;DHT22;4031;49.758;6.120;2024-03-25T08:48:16;8.20;99.90
7972;DHT22;4031;49.758;6.120;2024-03-25T08:50:42;8.60;99.90
7972;DHT22;4031;49.758;6.120;2024-03-25T08:53:08;9.20;99.90
7972;DHT22;4031;49.758;6.120;2024-03-25T08:55:34;10.20;99.90
7972;DHT22;4031;49.758;6.120;2024-03-25T08:58:00;11.20;99.90
7972;DHT22;4031;49.758;6.120;2024-03-25T09:00:27;12.50;99.90
7972;DHT22;4031;49.758;6.120;2024-03-25T09:02:53;13.70;99.90
7972;DHT22;4031;49.758;6.120;2024-03-25T09:05:20;14.50;99.90
7972;DHT22;4031;49.758;6.120;2024-03-25T09:07:49;15.00;99.90
7972;DHT22;4031;49.758;6.120;2024-03-25T09:10:20;14.90;99.90
7972;DHT22;4031;49.758;6.120;2024-03-25T09:13:04;13.90;99.90
7972;DHT22;4031;49.758;6.120;2024-03-25T09:15:30;14.10;99.90
7972;DHT22;4031;49.758;6.120;2024-03-25T09:17:56;14.30;99.90
7972;DHT22;4031;49.758;6.120;2024-03-25T09:20:22;14.50;99.90
7972;DHT22;4031;49.758;6.120;2024-03-25T09:22:48;14.40;99.90
7972;DHT22;4031;49.758;6.120;2024-03-25T09:25:15;14.90;99.90
7972;DHT22;4031;49.758;6.120;2024-03-25T09:27:50;14.80;99.90
7972;DHT22;4031;49.758;6.120;2024-03-25T09:30:17;14.60;99.90
7972;DHT22;4031;49.758;6.120;2024-03-25T09:32:45;15.00;99.90
7972;DHT22;4031;49.758;6.120;2024-03-25T09:35:12;16.00;99.90
7972;DHT22;4031;49.758;6.120;2024-03-25T09:37:38;17.20;99.90
7972;DHT22;4031;49.758;6.120;2024-03-25T09:40:05;17.70;99.90
7972;DHT22;4031;49.758;6.120;2024-03-25T09:42:50;18.00;99.90
7972;DHT22;4031;49.758;6.120;2024-03-25T09:45:18;18.20;99.90
7972;DHT22;4031;49.758;6.120;2024-03-25T09:47:47;17.20;99.90
7972;DHT22;4031;49.758;6.120;2024-03-25T09:50:14;15.30;99.90
7972;DHT22;4031;49.758;6.120;2024-03-25T09:52:49;13.50;99.90
7972;DHT22;4031;49.758;6.120;2024-03-25T09:55:15;13.10;99.90
7972;DHT22;4031;49.758;6.120;2024-03-25T09:57:43;12.30;99.90
7972;DHT22;4031;49.758;6.120;2024-03-25T10:00:10;11.50;99.90
7972;DHT22;4031;49.758;6.120;2024-03-25T10:02:38;10.90;99.90
7972;DHT22;4031;49.758;6.120;2024-03-25T10:05:06;11.30;99.90
7972;DHT22;4031;49.758;6.120;2024-03-25T10:07:33;11.50;99.90
7972;DHT22;4031;49.758;6.120;2024-03-25T10:09:59;11.50;99.90
7972;DHT22;4031;49.758;6.120;2024-03-25T10:12:29;11.00;99.90
7972;DHT22;4031;49.758;6.120;2024-03-25T10:14:54;10.70;99.90
7972;DHT22;4031;49.758;6.120;2024-03-25T10:17:22;11.50;99.90
7972;DHT22;4031;49.758;6.120;2024-03-25T10:19:48;13.20;99.90
7972;DHT22;4031;49.758;6.120;2024-03-25T10:22:14;14.00;99.90
7972;DHT22;4031;49.758;6.120;2024-03-25T10:24:41;14.60;99.90
7972;DHT22;4031;49.758;6.120;2024-03-25T10:27:21;14.30;99.90
7972;DHT22;4031;49.758;6.120;2024-03-25T10:29:52;13.40;99.90
7972;DHT22;4031;49.758;6.120;2024-03-25T10:32:20;12.60;99.90
7972;DHT22;4031;49.758;6.120;2024-03-25T10:34:47;12.20;99.90
7972;DHT22;4031;49.758;6.120;2024-03-25T10:37:14;11.90;99.90
7972;DHT22;4031;49.758;6.120;2024-03-25T10:39:50;11.70;99.90
7972;DHT22;4031;49.758;6.120;2024-03-25T10:42:20;11.70;99.90
7972;DHT22;4031;49.758;6.120;2024-03-25T10:44:48;12.40;99.90
7972;DHT22;4031;49.758;6.120;2024-03-25T10:47:25;13.90;99.90
7972;DHT22;4031;49.758;6.120;2024-03-25T10:49:58;16.00;99.90
7972;DHT22;4031;49.758;6.120;2024-03-25T10:52:26;16.40;99.90
7972;DHT22;4031;49.758;6.120;2024-03-25T10:54:52;15.70;99.90
7972;DHT22;4031;49.758;6.120;2024-03-25T10:57:20;14.80;99.90
7972;DHT22;4031;49.758;6.120;2024-03-25T10:59:46;14.20;99.90
7972;DHT22;4031;49.758;6.120;2024-03-25T11:02:13;13.70;99.90
7972;DHT22;4031;49.758;6.120;2024-03-25T11:04:39;13.30;99.90
7972;DHT22;4031;49.758;6.120;2024-03-25T11:07:13;13.00;99.90
7972;DHT22;4031;49.758;6.120;2024-03-25T11:09:40;12.80;99.90
7972;DHT22;4031;49.758;6.120;2024-03-25T11:12:09;12.80;99.90
7972;DHT22;4031;49.758;6.120;2024-03-25T11:14:35;12.90;99.90
7972;DHT22;4031;49.758;6.120;2024-03-25T11:17:01;13.30;99.90
7972;DHT22;4031;49.758;6.120;2024-03-25T11:19:29;13.40;99.90
7972;DHT22;4031;49.758;6.120;2024-03-25T11:22:10;13.20;99.90
7972;DHT22;4031;49.758;6.120;2024-03-25T11:24:36;13.20;99.90
7972;DHT22;4031;49.758;6.120;2024-03-25T11:27:06;13.60;99.90
7972;DHT22;4031;49.758;6.120;2024-03-25T11:29:33;14.90;99.90
7972;DHT22;4031;49.758;6.120;2024-03-25T11:32:05;14.60;99.90
7972;DHT22;4031;49.758;6.120;2024-03-25T11:34:31;14.00;99.90
7972;DHT22;4031;49.758;6.120;2024-03-25T11:36:57;13.70;99.90
7972;DHT22;4031;49.758;6.120;2024-03-25T11:39:24;13.10;99.90
7972;DHT22;4031;49.758;6.120;2024-03-25T11:41:54;12.80;99.90
7972;DHT22;4031;49.758;6.120;2024-03-25T11:44:20;13.50;99.90
7972;DHT22;4031;49.758;6.120;2024-03-25T11:46:50;13.70;99.90
7972;DHT22;4031;49.758;6.120;2024-03-25T11:49:16;14.30;99.90
7972;DHT22;4031;49.758;6.120;2024-03-25T11:51:43;14.80;99.90
7972;DHT22;4031;49.758;6.120;2024-03-25T11:54:12;14.60;99.90
7972;DHT22;4031;49.758;6.120;2024-03-25T11:56:39;14.20;99.90
7972;DHT22;4031;49.758;6.120;2024-03-25T11:59:04;15.20;99.90
7972;DHT22;4031;49.758;6.120;2024-03-25T12:01:31;15.10;99.90
7972;DHT22;4031;49.758;6.120;2024-03-25T12:03:57;15.50;99.90
7972;DHT22;4031;49.758;6.120;2024-03-25T12:06:23;16.00;99.90
7972;DHT22;4031;49.758;6.120;2024-03-25T12:08:49;16.80;99.90
7972;DHT22;4031;49.758;6.120;2024-03-25T12:11:33;17.10;99.90
7972;DHT22;4031;49.758;6.120;2024-03-25T12:14:00;17.40;99.90
7972;DHT22;4031;49.758;6.120;2024-03-25T12:16:27;17.80;99.90
7972;DHT22;4031;49.758;6.120;2024-03-25T12:18:52;17.80;99.90
7972;DHT22;4031;49.758;6.120;2024-03-25T12:21:19;17.60;99.90
7972;DHT22;4031;49.758;6.120;2024-03-25T12:23:47;17.90;99.90
7972;DHT22;4031;49.758;6.120;2024-03-25T12:26:13;17.50;99.90
7972;DHT22;4031;49.758;6.120;2024-03-25T12:28:40;17.10;99.90
7972;DHT22;4031;49.758;6.120;2024-03-25T12:31:09;16.50;99.90
7972;DHT22;4031;49.758;6.120;2024-03-25T12:33:43;16.40;99.90
7972;DHT22;4031;49.758;6.120;2024-03-25T12:36:12;16.90;99.90
7972;DHT22;4031;49.758;6.120;2024-03-25T12:38:38;17.20;99.90
7972;DHT22;4031;49.758;6.120;2024-03-25T12:41:05;17.20;99.90
7972;DHT22;4031;49.758;6.120;2024-03-25T12:43:33;17.40;99.90
7972;DHT22;4031;49.758;6.120;2024-03-25T12:45:59;17.80;99.90
7972;DHT22;4031;49.758;6.120;2024-03-25T12:48:26;18.20;99.90
7972;DHT22;4031;49.758;6.120;2024-03-25T12:50:52;18.10;99.90
7972;DHT22;4031;49.758;6.120;2024-03-25T12:53:21;17.60;99.90
7972;DHT22;4031;49.758;6.120;2024-03-25T12:55:47;17.00;99.90
7972;DHT22;4031;49.758;6.120;2024-03-25T12:58:13;17.20;99.90
7972;DHT22;4031;49.758;6.120;2024-03-25T13:00:39;17.70;99.90
7972;DHT22;4031;49.758;6.120;2024-03-25T13:03:09;18.10;99.90
7972;DHT22;4031;49.758;6.120;2024-03-25T13:05:35;18.30;99.90
7972;DHT22;4031;49.758;6.120;2024-03-25T13:08:02;18.70;99.90
7972;DHT22;4031;49.758;6.120;2024-03-25T13:10:28;19.10;99.90
7972;DHT22;4031;49.758;6.120;2024-03-25T13:12:55;18.90;99.90
7972;DHT22;4031;49.758;6.120;2024-03-25T13:15:21;18.90;99.90
7972;DHT22;4031;49.758;6.120;2024-03-25T13:17:47;18.90;99.90
7972;DHT22;4031;49.758;6.120;2024-03-25T13:20:13;19.00;99.90
7972;DHT22;4031;49.758;6.120;2024-03-25T13:22:40;19.00;99.90
7972;DHT22;4031;49.758;6.120;2024-03-25T13:25:09;18.80;99.90
7972;DHT22;4031;49.758;6.120;2024-03-25T13:27:34;18.80;99.90
7972;DHT22;4031;49.758;6.120;2024-03-25T13:30:00;19.20;99.90
7972;DHT22;4031;49.758;6.120;2024-03-25T13:32:26;18.70;99.90
7972;DHT22;4031;49.758;6.120;2024-03-25T13:34:52;18.00;99.90
7972;DHT22;4031;49.758;6.120;2024-03-25T13:37:17;17.00;99.90
7972;DHT22;4031;49.758;6.120;2024-03-25T13:39:43;16.30;99.90
7972;DHT22;4031;49.758;6.120;2024-03-25T13:42:11;16.30;99.90
7972;DHT22;4031;49.758;6.120;2024-03-25T13:44:37;17.10;99.90
7972;DHT22;4031;49.758;6.120;2024-03-25T13:47:03;17.30;99.90
7972;DHT22;4031;49.758;6.120;2024-03-25T13:49:29;16.70;99.90
7972;DHT22;4031;49.758;6.120;2024-03-25T13:51:58;16.50;99.90
7972;DHT22;4031;49.758;6.120;2024-03-25T13:54:24;16.90;99.90
7972;DHT22;4031;49.758;6.120;2024-03-25T13:56:51;17.60;99.90
7972;DHT22;4031;49.758;6.120;2024-03-25T13:59:17;17.80;99.90
7972;DHT22;4031;49.758;6.120;2024-03-25T14:01:44;18.30;99.90
7972;DHT22;4031;49.758;6.120;2024-03-25T14:04:10;18.80;99.90
7972;DHT22;4031;49.758;6.120;2024-03-25T14:06:36;19.20;99.90
7972;DHT22;4031;49.758;6.120;2024-03-25T14:09:03;19.60;99.90
7972;DHT22;4031;49.758;6.120;2024-03-25T14:11:30;20.00;99.90
7972;DHT22;4031;49.758;6.120;2024-03-25T14:13:57;20.20;99.90
7972;DHT22;4031;49.758;6.120;2024-03-25T14:16:22;20.10;99.90
7972;DHT22;4031;49.758;6.120;2024-03-25T14:18:48;19.40;99.90
7972;DHT22;4031;49.758;6.120;2024-03-25T14:21:14;19.30;99.90
7972;DHT22;4031;49.758;6.120;2024-03-25T14:23:40;19.00;99.90
7972;DHT22;4031;49.758;6.120;2024-03-25T14:26:12;18.80;99.90
7972;DHT22;4031;49.758;6.120;2024-03-25T14:28:40;18.60;99.90
7972;DHT22;4031;49.758;6.120;2024-03-25T14:31:06;18.40;99.90
7972;DHT22;4031;49.758;6.120;2024-03-25T14:33:32;18.40;99.90
7972;DHT22;4031;49.758;6.120;2024-03-25T14:35:58;18.40;99.90
7972;DHT22;4031;49.758;6.120;2024-03-25T14:38:24;18.40;99.90
7972;DHT22;4031;49.758;6.120;2024-03-25T14:40:49;18.60;99.90
7972;DHT22;4031;49.758;6.120;2024-03-25T14:43:15;18.70;99.90
7972;DHT22;4031;49.758;6.120;2024-03-25T14:45:44;18.80;99.90
7972;DHT22;4031;49.758;6.120;2024-03-25T14:48:11;18.70;99.90
7972;DHT22;4031;49.758;6.120;2024-03-25T14:50:36;18.30;99.90
7972;DHT22;4031;49.758;6.120;2024-03-25T14:53:03;18.20;99.90
7972;DHT22;4031;49.758;6.120;2024-03-25T14:55:30;18.10;99.90
7972;DHT22;4031;49.758;6.120;2024-03-25T14:57:56;17.80;99.90
7972;DHT22;4031;49.758;6.120;2024-03-25T15:00:22;17.50;99.90
7972;DHT22;4031;49.758;6.120;2024-03-25T15:02:52;17.30;99.90
7972;DHT22;4031;49.758;6.120;2024-03-25T15:05:18;17.30;99.90
7972;DHT22;4031;49.758;6.120;2024-03-25T15:07:47;17.30;99.90
7972;DHT22;4031;49.758;6.120;2024-03-25T15:10:13;17.10;99.90
7972;DHT22;4031;49.758;6.120;2024-03-25T15:12:38;16.60;99.90
7972;DHT22;4031;49.758;6.120;2024-03-25T15:15:06;16.40;99.90
7972;DHT22;4031;49.758;6.120;2024-03-25T15:17:34;16.20;99.90
7972;DHT22;4031;49.758;6.120;2024-03-25T15:20:00;16.30;99.90
7972;DHT22;4031;49.758;6.120;2024-03-25T15:22:26;16.40;99.90
7972;DHT22;4031;49.758;6.120;2024-03-25T15:24:52;16.00;99.90
7972;DHT22;4031;49.758;6.120;2024-03-25T15:27:18;16.00;99.90
7972;DHT22;4031;49.758;6.120;2024-03-25T15:29:43;15.60;99.90
7972;DHT22;4031;49.758;6.120;2024-03-25T15:32:09;15.50;99.90
7972;DHT22;4031;49.758;6.120;2024-03-25T15:34:36;15.30;99.90
7972;DHT22;4031;49.758;6.120;2024-03-25T15:37:01;15.30;99.90
7972;DHT22;4031;49.758;6.120;2024-03-25T15:39:28;15.10;99.90
7972;DHT22;4031;49.758;6.120;2024-03-25T15:41:53;14.70;99.90
7972;DHT22;4031;49.758;6.120;2024-03-25T15:44:19;14.10;99.90
7972;DHT22;4031;49.758;6.120;2024-03-25T15:46:45;13.80;99.90
7972;DHT22;4031;49.758;6.120;2024-03-25T15:49:11;13.60;99.90
7972;DHT22;4031;49.758;6.120;2024-03-25T15:51:37;13.40;99.90
7972;DHT22;4031;49.758;6.120;2024-03-25T15:54:03;13.20;99.90
7972;DHT22;4031;49.758;6.120;2024-03-25T15:56:29;12.90;99.90
7972;DHT22;4031;49.758;6.120;2024-03-25T15:58:54;12.80;99.90
7972;DHT22;4031;49.758;6.120;2024-03-25T16:01:21;12.70;99.90
7972;DHT22;4031;49.758;6.120;2024-03-25T16:03:47;12.70;99.90